Santa Maria Pub/Capt G Allan Hancock Field
KSMX : now visible

Airfield :











YOU CAN JOIN US ON...

 
LOGIN :

Register | Disclaimer

   EN    FR    IT 

 









Legend :    VFR   Marginal VFR   IFR   Intensive IFR   Very Intensive IFR
Visi :
Ceiling :
>= 8 km
>= 3000ft
5 to 8 km
1000 to 3000 ft
1500m to 5 km
500 to 1000 ft
800 to 1500m
200 to 500 ft
< 800m
< 200 ft
Symbols :   Thunderstorms  Fog  Heavy snow  Heavy precipitations  Wind > 20 kt







- Airport Elevation : 261 ft
- IATA code : SMX


KSMX - Santa Maria Pub/Capt G Allan Hancock Field

CURRENT METAR :
  • 220151Z 33007KT 10SM CLR 21/10 A2988 RMK AO2 SLP118 T02060100

EXPIRED METARs :
  • 220051Z 33010KT 10SM CLR 23/10 A2987 RMK AO2 SLP114 T02330100
  • 212351Z 32011KT 10SM CLR 24/11 A2986 RMK AO2 SLP113 T02440106 10322 20244 53002

TAF KSMX
Valid from the 22 at 00:00 until the 23 at 00:00 UTC


212345Z 2200/2224 31014KT P6SM SKC
FM220200 31007KT P6SM SKC
FM220500 VRB03KT P6SM SKC
FM221600 31006KT P6SM SCT250
FM222000 31012KT P6SM SCT250
No reported NOTAMs for that airfield.



MET'MAP, your aeronautical weather chart ! - Copyright ORBIFLY December 2007 - Disclaimer

ORBIFLY MET'MAP TEAM :

Programming & Development : Alexandra Zaïnal
Concept & Development : Baudouin d'Aumeries
Co-Development & Prog : Marc-Olivier Méhu
Technical & hardware support : Manuel Goepfert

Contact : metmap@orbifly.com




SOURCES & CREDITS :

   NOAA       Earth
Advisory